Time;durP1;ratioP1;P1;durP2;ratioP2;P2;SDS_P1;SDS_P2;PMS_P1;PMS_P2;Temp;Humidity;BMP_temperature;BMP_pressure;BME280_temperature;BME280_humidity;BME280_pressure;Samples;Min_cycle;Max_cycle;Signal;HPM_P1;HPM_P2
2022/02/14 00:02:06;;;;;;;14.80;6.95;;;;;;;;;;5012213;28;20033;-73
2022/02/14 00:04:32;;;;;;;19.92;7.15;;;;;;;;;;5011588;28;20105;-73
2022/02/14 00:06:58;;;;;;;16.98;7.18;;;;;;;;;;5012579;28;20109;-73
2022/02/14 00:09:24;;;;;;;14.43;6.78;;;;;;;;;;5012602;28;20041;-73
2022/02/14 00:11:53;;;;;;;11.82;6.93;;;;;;;;;;5012335;28;20022;-74
2022/02/14 00:14:19;;;;;;;12.63;7.00;;;;;;;;;;5011317;28;20025;-73
2022/02/14 00:16:45;;;;;;;13.32;7.70;;;;;;;;;;5011861;28;20034;-73
2022/02/14 00:19:11;;;;;;;14.95;6.55;;;;;;;;;;5012065;28;20025;-73
2022/02/14 00:21:37;;;;;;;15.00;7.80;;;;;;;;;;5011815;28;20109;-73
2022/02/14 00:24:04;;;;;;;13.45;7.88;;;;;;;;;;5012664;28;20590;-73
2022/02/14 00:26:31;;;;;;;15.23;7.75;;;;;;;;;;5015838;28;20045;-73
2022/02/14 00:28:57;;;;;;;16.35;8.95;;;;;;;;;;5014431;28;20506;-73
2022/02/14 00:31:23;;;;;;;16.70;7.28;;;;;;;;;;5014484;28;20077;-73
2022/02/14 00:33:49;;;;;;;14.38;7.30;;;;;;;;;;5014950;28;20480;-73
2022/02/14 00:36:15;;;;;;;13.18;7.03;;;;;;;;;;5014942;28;20026;-74
2022/02/14 00:38:41;;;;;;;14.73;7.57;;;;;;;;;;5015527;28;20052;-74
2022/02/14 00:41:07;;;;;;;15.98;8.73;;;;;;;;;;5015579;28;20045;-73
2022/02/14 00:43:33;;;;;;;15.50;7.38;;;;;;;;;;5014712;28;20101;-74
2022/02/14 00:45:59;;;;;;;15.05;7.20;;;;;;;;;;5014352;28;20505;-74
2022/02/14 00:48:25;;;;;;;21.70;8.38;;;;;;;;;;5015570;28;20018;-74
2022/02/14 00:50:51;;;;;;;13.43;7.40;;;;;;;;;;5015573;28;20026;-74
2022/02/14 00:53:18;;;;;;;15.95;7.70;;;;;;;;;;5014897;28;20037;-72
2022/02/14 00:55:44;;;;;;;20.80;7.05;;;;;;;;;;5015380;28;20036;-73
2022/02/14 00:58:10;;;;;;;15.90;7.88;;;;;;;;;;5013774;28;20108;-73
2022/02/14 01:00:36;;;;;;;16.50;7.15;;;;;;;;;;5015200;28;20030;-72
2022/02/14 01:03:02;;;;;;;15.80;7.20;;;;;;;;;;5014474;28;20026;-73
2022/02/14 01:05:28;;;;;;;12.50;7.65;;;;;;;;;;5015090;28;20030;-73
2022/02/14 01:07:54;;;;;;;16.98;7.40;;;;;;;;;;5015137;28;20022;-73
2022/02/14 01:10:20;;;;;;;14.85;7.80;;;;;;;;;;5015009;28;20041;-73
2022/02/14 01:12:46;;;;;;;11.40;6.75;;;;;;;;;;5014427;28;20030;-72
2022/02/14 01:15:15;;;;;;;17.67;7.55;;;;;;;;;;5015057;28;20041;-73
2022/02/14 01:17:41;;;;;;;15.20;7.93;;;;;;;;;;5014733;28;20033;-73
2022/02/14 01:20:09;;;;;;;13.80;7.18;;;;;;;;;;5014918;28;20029;-73
2022/02/14 01:22:35;;;;;;;13.95;7.95;;;;;;;;;;5013399;28;20113;-73
2022/02/14 01:25:01;;;;;;;15.15;8.32;;;;;;;;;;5014451;28;20030;-72
2022/02/14 01:27:27;;;;;;;15.35;8.05;;;;;;;;;;5014621;28;20373;-73
2022/02/14 01:29:53;;;;;;;14.98;7.72;;;;;;;;;;5013212;28;20076;-73
2022/02/14 01:32:22;;;;;;;16.48;8.20;;;;;;;;;;5014579;28;20457;-73
2022/02/14 01:34:48;;;;;;;14.65;7.70;;;;;;;;;;5012494;28;20076;-72
2022/02/14 01:37:14;;;;;;;16.90;7.65;;;;;;;;;;5013031;28;20238;-73
2022/02/14 01:39:41;;;;;;;14.80;7.85;;;;;;;;;;5014770;28;20022;-73
2022/02/14 01:42:07;;;;;;;17.90;8.15;;;;;;;;;;5014652;28;20080;-73
2022/02/14 01:44:36;;;;;;;14.48;8.20;;;;;;;;;;5012251;28;20084;-74
2022/02/14 01:47:03;;;;;;;13.77;7.88;;;;;;;;;;5014266;28;20060;-73
2022/02/14 01:49:29;;;;;;;15.73;8.18;;;;;;;;;;5014490;28;20103;-73
2022/02/14 01:51:55;;;;;;;14.38;8.70;;;;;;;;;;5022338;28;20538;-74
2022/02/14 01:54:22;;;;;;;13.88;7.30;;;;;;;;;;5033358;28;20294;-73
2022/02/14 01:56:48;;;;;;;12.85;8.65;;;;;;;;;;5016055;28;20025;-74
2022/02/14 01:59:14;;;;;;;11.60;6.78;;;;;;;;;;5033881;28;20033;-74
2022/02/14 02:01:40;;;;;;;15.05;7.85;;;;;;;;;;5033601;28;20503;-73
2022/02/14 02:04:06;;;;;;;14.43;7.95;;;;;;;;;;5033070;28;20017;-73
2022/02/14 02:06:32;;;;;;;14.98;8.52;;;;;;;;;;5016435;28;20447;-73
2022/02/14 02:08:59;;;;;;;13.25;7.50;;;;;;;;;;5012553;28;20053;-73
2022/02/14 02:14:10;;;;;;;14.00;7.30;;;;;;;;;;5013117;28;20111;-73
2022/02/14 02:16:36;;;;;;;14.30;7.35;;;;;;;;;;5013682;28;20021;-73
2022/02/14 02:19:02;;;;;;;16.65;8.13;;;;;;;;;;5013683;28;20029;-73
2022/02/14 02:21:28;;;;;;;12.77;7.68;;;;;;;;;;5013356;28;20104;-73
2022/02/14 02:23:57;;;;;;;16.73;8.25;;;;;;;;;;5012807;28;20086;-74
2022/02/14 02:26:28;;;;;;;15.95;8.57;;;;;;;;;;5012486;28;20048;-73
2022/02/14 02:28:54;;;;;;;12.40;6.93;;;;;;;;;;5013749;28;20022;-73
2022/02/14 02:31:20;;;;;;;15.38;7.32;;;;;;;;;;5013097;28;20026;-73
2022/02/14 02:33:46;;;;;;;15.15;8.23;;;;;;;;;;5013415;28;20036;-74
2022/02/14 02:36:13;;;;;;;12.32;7.35;;;;;;;;;;5012272;28;20057;-73
2022/02/14 02:38:38;;;;;;;13.73;7.50;;;;;;;;;;5013236;28;20033;-73
2022/02/14 02:41:05;;;;;;;15.07;7.47;;;;;;;;;;5011815;28;20427;-73
2022/02/14 02:43:31;;;;;;;14.35;8.43;;;;;;;;;;5012331;28;20045;-73
2022/02/14 02:45:57;;;;;;;14.23;7.47;;;;;;;;;;5035418;23;20046;-72
2022/02/14 02:48:23;;;;;;;13.40;7.13;;;;;;;;;;5014125;28;20029;-72
2022/02/14 02:51:02;;;;;;;15.75;7.85;;;;;;;;;;5014066;28;20022;-74
2022/02/14 02:53:32;;;;;;;13.07;7.75;;;;;;;;;;5011560;28;20033;-73
2022/02/14 02:55:58;;;;;;;18.45;7.80;;;;;;;;;;5012943;28;20105;-71
2022/02/14 02:58:25;;;;;;;16.38;7.72;;;;;;;;;;5013179;28;20129;-72
2022/02/14 03:00:51;;;;;;;15.25;7.75;;;;;;;;;;5011638;28;20026;-72
2022/02/14 03:03:17;;;;;;;15.27;7.60;;;;;;;;;;5012801;28;20097;-72
2022/02/14 03:05:43;;;;;;;14.73;7.50;;;;;;;;;;5013056;28;20119;-72
2022/02/14 03:08:09;;;;;;;14.50;7.47;;;;;;;;;;5013456;28;20033;-72
2022/02/14 03:10:35;;;;;;;16.40;7.53;;;;;;;;;;5013187;28;20431;-72
2022/02/14 03:13:01;;;;;;;17.08;8.43;;;;;;;;;;5012346;28;20092;-73
2022/02/14 03:15:27;;;;;;;16.50;8.45;;;;;;;;;;5012583;28;20499;-72
2022/02/14 03:17:53;;;;;;;14.18;7.75;;;;;;;;;;5012725;28;20030;-73
2022/02/14 03:20:19;;;;;;;14.75;7.35;;;;;;;;;;5012674;28;20112;-73
2022/02/14 03:22:45;;;;;;;14.57;7.85;;;;;;;;;;5012144;28;20061;-71
2022/02/14 03:25:13;;;;;;;16.55;7.75;;;;;;;;;;5012442;28;20049;-72
2022/02/14 03:27:39;;;;;;;11.55;6.90;;;;;;;;;;5011343;28;20037;-72
2022/02/14 03:30:06;;;;;;;14.90;7.18;;;;;;;;;;5012521;28;20034;-71
2022/02/14 03:32:35;;;;;;;12.30;7.20;;;;;;;;;;5012777;28;20087;-71
2022/02/14 03:35:01;;;;;;;16.58;7.68;;;;;;;;;;5010495;28;20469;-72
2022/02/14 03:37:27;;;;;;;12.57;8.13;;;;;;;;;;4992771;28;20476;-72
2022/02/14 03:39:53;;;;;;;13.93;7.32;;;;;;;;;;4993202;28;20026;-72
2022/02/14 03:42:19;;;;;;;20.50;8.70;;;;;;;;;;4992532;28;20396;-72
2022/02/14 03:44:45;;;;;;;11.82;7.28;;;;;;;;;;4991894;28;20405;-72
2022/02/14 03:47:11;;;;;;;14.00;7.30;;;;;;;;;;4992679;28;20396;-72
2022/02/14 03:49:37;;;;;;;13.02;7.55;;;;;;;;;;5007871;28;20033;-72
2022/02/14 03:52:03;;;;;;;15.25;8.25;;;;;;;;;;4992750;28;20034;-71
2022/02/14 03:54:29;;;;;;;15.32;7.72;;;;;;;;;;5006870;28;20026;-71
2022/02/14 03:56:55;;;;;;;18.67;9.00;;;;;;;;;;4992125;28;20041;-72
2022/02/14 03:59:21;;;;;;;14.02;7.82;;;;;;;;;;4992590;28;20117;-72
2022/02/14 04:01:47;;;;;;;16.33;8.23;;;;;;;;;;4992535;28;20026;-72
2022/02/14 04:04:14;;;;;;;13.95;8.27;;;;;;;;;;4991990;28;20034;-72
2022/02/14 04:06:40;;;;;;;12.63;7.45;;;;;;;;;;4992576;28;20473;-72
2022/02/14 04:09:06;;;;;;;15.88;7.82;;;;;;;;;;4992537;28;20039;-73
2022/02/14 04:11:31;;;;;;;11.40;7.13;;;;;;;;;;4992410;28;20035;-72
2022/02/14 04:13:57;;;;;;;16.08;7.53;;;;;;;;;;5006776;28;20173;-73
2022/02/14 04:16:23;;;;;;;11.80;7.22;;;;;;;;;;4992319;28;20037;-73
2022/02/14 04:18:49;;;;;;;20.52;8.52;;;;;;;;;;4992340;28;20026;-74
2022/02/14 04:21:15;;;;;;;13.73;7.63;;;;;;;;;;4992158;28;20036;-72
2022/02/14 04:23:41;;;;;;;12.70;7.05;;;;;;;;;;4991514;28;20177;-72
2022/02/14 04:26:07;;;;;;;15.10;7.93;;;;;;;;;;5007148;28;20073;-72
2022/02/14 04:28:33;;;;;;;15.68;8.15;;;;;;;;;;4992374;28;20034;-72
2022/02/14 04:30:59;;;;;;;14.80;7.50;;;;;;;;;;4992233;28;20540;-72
2022/02/14 04:33:25;;;;;;;14.23;8.18;;;;;;;;;;4991673;28;20034;-72
2022/02/14 04:35:51;;;;;;;13.65;7.82;;;;;;;;;;4992180;28;20027;-72
2022/02/14 04:38:17;;;;;;;13.50;8.18;;;;;;;;;;4992102;28;20507;-72
2022/02/14 04:40:43;;;;;;;12.63;7.20;;;;;;;;;;5007076;28;20034;-72
2022/02/14 04:43:09;;;;;;;14.10;7.72;;;;;;;;;;4991463;28;20045;-72
2022/02/14 04:45:36;;;;;;;11.75;7.35;;;;;;;;;;4991841;28;20035;-73
2022/02/14 04:48:02;;;;;;;15.68;7.47;;;;;;;;;;4992504;28;20030;-72
2022/02/14 04:50:28;;;;;;;14.93;7.68;;;;;;;;;;4993674;28;20038;-72
2022/02/14 04:52:54;;;;;;;16.50;7.00;;;;;;;;;;5010252;28;20456;-72
2022/02/14 04:55:20;;;;;;;14.63;7.85;;;;;;;;;;4994009;28;20452;-72
2022/02/14 04:57:46;;;;;;;19.35;8.13;;;;;;;;;;4992448;28;20061;-73
2022/02/14 05:00:13;;;;;;;13.98;7.50;;;;;;;;;;4992143;28;20034;-72
2022/02/14 05:02:39;;;;;;;16.50;7.60;;;;;;;;;;4991800;28;20022;-71
2022/02/14 05:05:06;;;;;;;14.57;7.50;;;;;;;;;;4991595;28;20042;-71
2022/02/14 05:07:32;;;;;;;11.95;6.95;;;;;;;;;;4991940;28;20054;-71
2022/02/14 05:09:58;;;;;;;13.05;7.07;;;;;;;;;;4994384;28;20089;-72
2022/02/14 05:12:24;;;;;;;12.57;7.55;;;;;;;;;;4995822;28;20033;-72
2022/02/14 05:14:49;;;;;;;12.75;7.55;;;;;;;;;;4994215;28;20034;-72
2022/02/14 05:17:15;;;;;;;14.00;7.70;;;;;;;;;;4995085;28;20037;-72
2022/02/14 05:19:42;;;;;;;15.25;7.78;;;;;;;;;;4995025;28;20031;-73
2022/02/14 05:22:08;;;;;;;13.88;7.72;;;;;;;;;;4995044;28;20034;-72
2022/02/14 05:24:34;;;;;;;13.70;7.15;;;;;;;;;;4994048;28;20038;-73
2022/02/14 05:27:00;;;;;;;14.75;8.27;;;;;;;;;;4995086;28;20084;-73
2022/02/14 05:29:26;;;;;;;12.85;7.18;;;;;;;;;;4994668;28;20037;-72
2022/02/14 05:31:52;;;;;;;11.23;6.93;;;;;;;;;;4994902;28;20046;-73
2022/02/14 05:34:18;;;;;;;18.77;8.23;;;;;;;;;;4994474;28;20041;-73
2022/02/14 05:36:44;;;;;;;12.23;7.55;;;;;;;;;;4994291;28;20034;-72
2022/02/14 05:39:10;;;;;;;14.02;8.35;;;;;;;;;;4994416;28;20034;-73
2022/02/14 05:41:36;;;;;;;14.25;7.53;;;;;;;;;;4994512;28;20473;-73
2022/02/14 05:44:04;;;;;;;15.38;7.53;;;;;;;;;;4993902;28;20026;-73
2022/02/14 05:46:30;;;;;;;14.20;7.18;;;;;;;;;;4995438;28;20027;-72
2022/02/14 05:48:57;;;;;;;16.80;8.00;;;;;;;;;;5011020;28;20485;-72
2022/02/14 05:51:23;;;;;;;15.50;8.38;;;;;;;;;;4996985;28;20097;-73
2022/02/14 05:53:49;;;;;;;19.65;7.63;;;;;;;;;;4995155;28;20459;-73
2022/02/14 05:56:16;;;;;;;13.82;7.63;;;;;;;;;;4994720;28;20044;-72
2022/02/14 05:58:45;;;;;;;15.13;7.88;;;;;;;;;;4994725;28;20034;-72
2022/02/14 06:01:11;;;;;;;14.50;7.13;;;;;;;;;;4994542;28;20030;-72
2022/02/14 06:03:37;;;;;;;14.15;7.28;;;;;;;;;;4993698;28;20096;-72
2022/02/14 06:06:03;;;;;;;16.08;7.75;;;;;;;;;;4994278;28;20026;-73
2022/02/14 06:08:29;;;;;;;17.80;7.97;;;;;;;;;;4994228;28;20048;-73
2022/02/14 06:10:55;;;;;;;17.02;8.60;;;;;;;;;;4994372;28;20031;-72
2022/02/14 06:13:21;;;;;;;14.35;7.93;;;;;;;;;;4993624;28;20416;-73
2022/02/14 06:15:47;;;;;;;14.23;7.28;;;;;;;;;;4994007;28;20026;-73
2022/02/14 06:18:14;;;;;;;13.32;7.15;;;;;;;;;;4994293;28;20034;-73
2022/02/14 06:20:40;;;;;;;17.80;8.70;;;;;;;;;;4993553;28;20035;-72
2022/02/14 06:23:06;;;;;;;10.40;7.40;;;;;;;;;;4993446;28;20038;-71
2022/02/14 06:25:32;;;;;;;16.33;9.02;;;;;;;;;;5009681;28;20030;-73
2022/02/14 06:27:58;;;;;;;15.73;8.35;;;;;;;;;;5011804;28;20026;-73
2022/02/14 06:30:24;;;;;;;13.95;7.38;;;;;;;;;;5013198;28;20051;-72
2022/02/14 06:32:51;;;;;;;13.52;6.90;;;;;;;;;;5012659;28;20029;-72
2022/02/14 06:35:17;;;;;;;14.95;8.20;;;;;;;;;;5012982;28;20025;-72
2022/02/14 06:37:43;;;;;;;15.57;7.90;;;;;;;;;;5013321;28;20117;-72
2022/02/14 06:40:10;;;;;;;15.57;8.65;;;;;;;;;;5013224;28;20400;-73
2022/02/14 06:42:36;;;;;;;13.82;7.22;;;;;;;;;;5011590;28;20053;-73
2022/02/14 06:45:03;;;;;;;17.27;7.47;;;;;;;;;;5012437;28;20092;-73
2022/02/14 06:47:29;;;;;;;13.45;7.15;;;;;;;;;;5013211;28;20108;-73
2022/02/14 06:49:54;;;;;;;15.18;7.78;;;;;;;;;;5011651;28;20121;-71
2022/02/14 06:52:20;;;;;;;13.90;7.85;;;;;;;;;;5013127;28;20394;-72
2022/02/14 06:54:46;;;;;;;17.73;7.82;;;;;;;;;;5012419;28;20053;-72
2022/02/14 06:57:13;;;;;;;15.40;7.35;;;;;;;;;;5008547;28;20061;-73
2022/02/14 06:59:39;;;;;;;14.75;7.90;;;;;;;;;;5000534;28;20026;-71
2022/02/14 07:02:05;;;;;;;13.73;7.05;;;;;;;;;;4993342;28;20031;-73
2022/02/14 07:04:31;;;;;;;12.27;8.00;;;;;;;;;;4992760;28;20019;-73
2022/02/14 07:06:56;;;;;;;12.77;7.28;;;;;;;;;;4994315;28;20465;-73
2022/02/14 07:09:22;;;;;;;15.65;7.15;;;;;;;;;;4994331;28;20022;-72
2022/02/14 07:11:49;;;;;;;14.85;7.57;;;;;;;;;;4992485;28;20481;-72
2022/02/14 07:14:16;;;;;;;15.10;8.70;;;;;;;;;;4992458;28;20019;-73
2022/02/14 07:16:43;;;;;;;15.95;7.28;;;;;;;;;;4993126;28;20026;-72
2022/02/14 07:19:09;;;;;;;12.90;8.35;;;;;;;;;;4992772;28;20022;-72
2022/02/14 07:21:35;;;;;;;13.52;7.57;;;;;;;;;;5015238;28;20135;-74
2022/02/14 07:24:02;;;;;;;12.00;7.32;;;;;;;;;;4992156;28;20450;-73
2022/02/14 07:26:28;;;;;;;13.45;7.65;;;;;;;;;;4992712;28;20014;-73
2022/02/14 07:28:54;;;;;;;14.80;7.25;;;;;;;;;;4992732;28;20398;-72
2022/02/14 07:31:21;;;;;;;13.10;7.40;;;;;;;;;;4992866;28;20026;-72
2022/02/14 07:33:47;;;;;;;13.70;7.07;;;;;;;;;;4991367;28;20436;-72
2022/02/14 07:36:13;;;;;;;14.95;8.57;;;;;;;;;;4992587;28;20026;-72
2022/02/14 07:38:38;;;;;;;14.63;7.35;;;;;;;;;;4992595;28;20476;-73
2022/02/14 07:41:04;;;;;;;12.55;7.18;;;;;;;;;;4992888;28;20034;-72
2022/02/14 07:43:32;;;;;;;12.35;7.22;;;;;;;;;;4992206;28;20025;-72
2022/02/14 07:45:58;;;;;;;13.52;6.50;;;;;;;;;;4992373;28;20026;-73
2022/02/14 07:48:23;;;;;;;12.07;7.18;;;;;;;;;;4992536;28;20045;-72
2022/02/14 07:50:49;;;;;;;11.52;7.20;;;;;;;;;;4992418;28;20038;-72
2022/02/14 07:53:18;;;;;;;14.52;7.30;;;;;;;;;;4992000;28;20034;-72
2022/02/14 07:55:44;;;;;;;12.25;7.15;;;;;;;;;;4992388;28;20034;-73
2022/02/14 07:58:10;;;;;;;14.73;7.43;;;;;;;;;;4992215;28;20404;-74
2022/02/14 08:00:36;;;;;;;12.27;7.25;;;;;;;;;;4992373;28;20404;-72
2022/02/14 08:03:02;;;;;;;11.23;6.85;;;;;;;;;;4991504;28;20022;-72
2022/02/14 08:05:28;;;;;;;12.82;7.10;;;;;;;;;;4992320;28;20050;-73
2022/02/14 08:07:54;;;;;;;13.63;7.13;;;;;;;;;;4992437;28;20026;-72
2022/02/14 08:10:20;;;;;;;11.73;6.85;;;;;;;;;;4992371;28;20082;-72
2022/02/14 08:12:46;;;;;;;19.48;9.05;;;;;;;;;;4991953;28;20488;-71
2022/02/14 08:15:12;;;;;;;12.68;7.00;;;;;;;;;;5023496;28;20393;-73
2022/02/14 08:17:38;;;;;;;15.80;7.65;;;;;;;;;;4992056;28;20030;-73
2022/02/14 08:20:05;;;;;;;11.32;6.47;;;;;;;;;;4992457;28;20023;-74
2022/02/14 08:22:34;;;;;;;16.13;7.72;;;;;;;;;;4992261;28;20038;-73
2022/02/14 08:25:00;;;;;;;16.02;7.10;;;;;;;;;;4991381;28;20388;-72
2022/02/14 08:27:26;;;;;;;14.40;7.72;;;;;;;;;;4992225;28;20030;-73
2022/02/14 08:29:52;;;;;;;18.38;7.55;;;;;;;;;;5023608;28;20037;-72
2022/02/14 08:32:18;;;;;;;11.23;6.43;;;;;;;;;;5023585;28;20101;-73
2022/02/14 08:34:44;;;;;;;9.63;6.88;;;;;;;;;;4991482;28;20370;-73
2022/02/14 08:37:11;;;;;;;15.38;6.93;;;;;;;;;;4992094;28;20073;-72
2022/02/14 08:39:37;;;;;;;13.88;6.75;;;;;;;;;;4991896;28;20408;-74
2022/02/14 08:42:03;;;;;;;17.70;7.47;;;;;;;;;;4992179;28;20018;-74
2022/02/14 08:44:30;;;;;;;11.40;7.35;;;;;;;;;;5017399;23;20392;-70
2022/02/14 08:46:56;;;;;;;10.73;6.97;;;;;;;;;;5014532;28;20454;-72
2022/02/14 08:49:24;;;;;;;10.57;6.18;;;;;;;;;;5015338;28;20032;-72
2022/02/14 08:51:51;;;;;;;11.25;6.80;;;;;;;;;;5015273;28;20069;-72
2022/02/14 08:54:17;;;;;;;15.07;7.40;;;;;;;;;;5013064;28;20022;-72
2022/02/14 08:56:43;;;;;;;13.80;7.03;;;;;;;;;;5014904;28;20034;-71
2022/02/14 08:59:13;;;;;;;12.43;6.63;;;;;;;;;;5014978;28;20022;-72
2022/02/14 09:01:39;;;;;;;14.60;7.00;;;;;;;;;;5013754;28;20018;-73
2022/02/14 09:04:05;;;;;;;14.13;7.00;;;;;;;;;;5015057;28;20083;-72
2022/02/14 09:06:31;;;;;;;14.68;6.65;;;;;;;;;;5015075;28;20036;-74
2022/02/14 09:08:57;;;;;;;14.95;6.80;;;;;;;;;;5014716;28;20026;-70
2022/02/14 09:11:22;;;;;;;15.50;7.18;;;;;;;;;;5014803;28;20484;-70
2022/02/14 09:13:48;;;;;;;11.80;6.28;;;;;;;;;;5014523;28;20036;-71
2022/02/14 09:16:14;;;;;;;17.15;6.93;;;;;;;;;;5014764;28;20038;-71
2022/02/14 09:18:41;;;;;;;12.02;6.72;;;;;;;;;;5014766;28;20091;-72
2022/02/14 09:21:07;;;;;;;12.82;7.40;;;;;;;;;;5010606;28;20018;-72
2022/02/14 09:23:33;;;;;;;10.65;6.63;;;;;;;;;;4994239;28;20395;-73
2022/02/14 09:25:59;;;;;;;14.68;7.20;;;;;;;;;;4995024;28;20026;-72
2022/02/14 09:28:25;;;;;;;14.85;7.32;;;;;;;;;;4994561;28;20511;-72
2022/02/14 09:30:51;;;;;;;11.90;6.50;;;;;;;;;;4995038;28;20031;-72
2022/02/14 09:33:18;;;;;;;14.75;6.50;;;;;;;;;;4994083;28;20080;-72
2022/02/14 09:35:45;;;;;;;12.57;6.97;;;;;;;;;;5009724;28;20404;-71
2022/02/14 09:38:11;;;;;;;12.57;6.72;;;;;;;;;;4994617;28;20031;-71
2022/02/14 09:40:37;;;;;;;13.10;7.55;;;;;;;;;;4994264;28;20038;-73
2022/02/14 09:43:03;;;;;;;12.10;7.40;;;;;;;;;;5008893;28;20026;-72
2022/02/14 09:45:30;;;;;;;17.75;6.70;;;;;;;;;;4994244;28;20061;-73
2022/02/14 09:48:00;;;;;;;13.60;7.03;;;;;;;;;;4994345;28;20101;-72
2022/02/14 09:50:27;;;;;;;15.27;7.88;;;;;;;;;;4994256;28;20023;-72
2022/02/14 09:52:53;;;;;;;12.95;7.43;;;;;;;;;;4993487;28;20089;-73
2022/02/14 09:55:20;;;;;;;13.25;6.85;;;;;;;;;;4993013;28;20061;-73
2022/02/14 09:57:46;;;;;;;12.65;6.78;;;;;;;;;;4994320;28;20376;-73
2022/02/14 10:00:12;;;;;;;11.25;6.72;;;;;;;;;;4993892;28;20381;-71
2022/02/14 10:02:38;;;;;;;15.30;7.55;;;;;;;;;;4993767;28;20096;-70
2022/02/14 10:05:12;;;;;;;14.38;6.50;;;;;;;;;;4994102;28;20018;-71
2022/02/14 10:07:39;;;;;;;10.98;7.20;;;;;;;;;;4994156;28;20022;-72
2022/02/14 10:10:09;;;;;;;12.70;7.22;;;;;;;;;;4993766;28;20106;-72
2022/02/14 10:12:39;;;;;;;13.90;6.63;;;;;;;;;;4994054;28;20026;-71
2022/02/14 10:15:05;;;;;;;13.88;7.03;;;;;;;;;;4993193;28;20030;-70
2022/02/14 10:17:37;;;;;;;14.43;6.97;;;;;;;;;;4994174;28;20038;-72
2022/02/14 10:20:03;;;;;;;12.30;6.40;;;;;;;;;;4993909;28;20033;-72
2022/02/14 10:22:30;;;;;;;15.20;6.78;;;;;;;;;;4993629;28;20026;-69
2022/02/14 10:24:55;;;;;;;14.32;6.68;;;;;;;;;;4993441;28;20018;-69
2022/02/14 10:27:37;;;;;;;12.90;6.70;;;;;;;;;;4993598;28;20495;-70
2022/02/14 10:30:11;;;;;;;18.98;7.35;;;;;;;;;;4993707;28;20015;-68
2022/02/14 10:32:49;;;;;;;14.18;6.47;;;;;;;;;;4993723;28;20109;-72
2022/02/14 10:35:15;;;;;;;13.13;6.35;;;;;;;;;;4993734;28;20027;-71
2022/02/14 10:37:43;;;;;;;13.25;6.28;;;;;;;;;;4993314;28;20109;-70
2022/02/14 10:40:10;;;;;;;11.23;5.95;;;;;;;;;;4993531;28;20463;-71
2022/02/14 10:42:36;;;;;;;18.20;6.80;;;;;;;;;;4993103;28;20030;-69
2022/02/14 10:45:09;;;;;;;13.55;7.50;;;;;;;;;;4992412;28;20026;-70
2022/02/14 10:47:44;;;;;;;14.82;6.47;;;;;;;;;;4993174;28;20050;-71
2022/02/14 10:50:13;;;;;;;17.27;7.15;;;;;;;;;;4993447;28;20118;-71
2022/02/14 10:52:44;;;;;;;21.00;6.50;;;;;;;;;;4992975;28;20026;-71
2022/02/14 10:55:32;;;;;;;11.40;6.80;;;;;;;;;;4993215;28;20027;-72
2022/02/14 10:57:58;;;;;;;14.45;6.28;;;;;;;;;;4992994;28;20026;-72
2022/02/14 11:00:26;;;;;;;11.68;6.05;;;;;;;;;;4993171;28;20153;-69
2022/02/14 11:02:53;;;;;;;18.55;6.53;;;;;;;;;;4992661;28;20054;-71
2022/02/14 11:05:20;;;;;;;21.92;5.80;;;;;;;;;;4993080;28;20018;-69
2022/02/14 11:07:46;;;;;;;9.35;5.75;;;;;;;;;;4992631;28;20396;-71
2022/02/14 11:10:16;;;;;;;14.82;6.35;;;;;;;;;;4993046;28;20022;-71
2022/02/14 11:12:48;;;;;;;12.80;5.57;;;;;;;;;;4992428;28;20041;-72
2022/02/14 11:15:15;;;;;;;12.38;5.72;;;;;;;;;;5007615;28;20014;-72
2022/02/14 11:17:45;;;;;;;13.63;6.60;;;;;;;;;;4992741;28;20026;-70
2022/02/14 11:20:11;;;;;;;9.68;5.38;;;;;;;;;;5007721;28;20027;-73
2022/02/14 11:22:47;;;;;;;12.40;5.28;;;;;;;;;;4992857;28;20038;-73
2022/02/14 11:25:18;;;;;;;8.65;5.00;;;;;;;;;;4994458;28;20037;-72
2022/02/14 11:28:06;;;;;;;10.07;4.65;;;;;;;;;;4994798;28;20069;-72
2022/02/14 11:30:32;;;;;;;10.20;5.47;;;;;;;;;;4973408;28;20435;-72
2022/02/14 11:33:05;;;;;;;9.48;5.00;;;;;;;;;;4992416;28;20465;-69
2022/02/14 11:35:31;;;;;;;9.40;5.15;;;;;;;;;;4993230;28;20515;-72
2022/02/14 11:38:00;;;;;;;11.48;5.25;;;;;;;;;;4992906;28;20104;-72
2022/02/14 11:40:26;;;;;;;8.32;4.60;;;;;;;;;;4992545;28;20019;-72
2022/02/14 11:43:05;;;;;;;11.02;4.80;;;;;;;;;;4992197;28;20034;-73
2022/02/14 11:45:32;;;;;;;8.80;5.32;;;;;;;;;;4992366;28;20124;-72
2022/02/14 11:47:58;;;;;;;5.57;3.15;;;;;;;;;;4992575;28;20555;-71
2022/02/14 11:50:39;;;;;;;7.57;4.38;;;;;;;;;;4992348;28;20026;-72
2022/02/14 11:53:24;;;;;;;15.93;5.30;;;;;;;;;;4991764;28;20088;-72
2022/02/14 11:55:50;;;;;;;9.23;4.35;;;;;;;;;;4992473;28;20049;-71
2022/02/14 11:58:36;;;;;;;11.45;5.50;;;;;;;;;;4992308;28;20027;-71
2022/02/14 12:01:06;;;;;;;15.48;5.72;;;;;;;;;;5007405;28;20073;-71
2022/02/14 12:03:32;;;;;;;14.98;4.32;;;;;;;;;;4991502;28;20499;-72
2022/02/14 12:05:57;;;;;;;7.90;3.88;;;;;;;;;;4992072;28;20030;-72
2022/02/14 12:08:23;;;;;;;11.45;5.63;;;;;;;;;;5007198;28;20018;-72
2022/02/14 12:10:51;;;;;;;12.00;5.75;;;;;;;;;;4992197;28;20065;-71
2022/02/14 12:13:18;;;;;;;16.58;6.10;;;;;;;;;;4991921;28;20106;-72
2022/02/14 12:21:11;;;;;;;12.95;5.97;;;;;;;;;;4996383;28;20089;-72
2022/02/14 12:23:41;;;;;;;10.82;6.07;;;;;;;;;;4995451;28;20488;-72
2022/02/14 12:26:11;;;;;;;14.32;7.32;;;;;;;;;;5010957;28;20134;-72
2022/02/14 12:28:38;;;;;;;11.90;7.20;;;;;;;;;;5010864;28;20022;-70
2022/02/14 12:31:05;;;;;;;11.77;6.60;;;;;;;;;;4996127;28;20308;-72
2022/02/14 12:33:31;;;;;;;19.25;7.28;;;;;;;;;;4995553;28;20040;-71
2022/02/14 12:35:58;;;;;;;11.13;6.25;;;;;;;;;;4995702;28;20492;-71
2022/02/14 12:38:31;;;;;;;10.23;6.65;;;;;;;;;;4995664;28;20444;-72
2022/02/14 12:41:13;;;;;;;16.42;6.20;;;;;;;;;;5010774;28;20022;-71
2022/02/14 12:43:41;;;;;;;14.77;7.32;;;;;;;;;;4995008;28;20022;-72
2022/02/14 12:46:10;;;;;;;14.10;7.10;;;;;;;;;;4995691;28;20042;-73
2022/02/14 12:48:36;;;;;;;14.02;7.78;;;;;;;;;;4995643;28;20048;-74
2022/02/14 12:51:03;;;;;;;18.08;6.88;;;;;;;;;;4996026;28;20548;-72
2022/02/14 12:53:30;;;;;;;12.13;6.78;;;;;;;;;;4995556;28;20041;-71
2022/02/14 12:56:11;;;;;;;12.13;7.38;;;;;;;;;;4995929;28;20022;-70
2022/02/14 12:58:53;;;;;;;12.88;7.25;;;;;;;;;;4995872;28;20041;-72
2022/02/14 13:01:20;;;;;;;15.13;7.95;;;;;;;;;;4995900;28;20026;-72
2022/02/14 13:03:53;;;;;;;14.65;7.30;;;;;;;;;;4995139;28;20026;-73
2022/02/14 13:06:19;;;;;;;13.23;7.00;;;;;;;;;;4995380;28;20018;-72
2022/02/14 13:08:48;;;;;;;16.63;8.80;;;;;;;;;;4995439;28;20067;-70
2022/02/14 13:11:14;;;;;;;13.32;7.60;;;;;;;;;;4995123;28;20030;-71
2022/02/14 13:13:41;;;;;;;13.07;7.70;;;;;;;;;;4995613;28;20041;-71
2022/02/14 13:16:08;;;;;;;14.48;8.88;;;;;;;;;;4994056;28;20022;-72
2022/02/14 13:18:41;;;;;;;13.93;8.50;;;;;;;;;;4994157;28;20026;-72
2022/02/14 13:21:07;;;;;;;16.98;8.30;;;;;;;;;;4994400;28;20038;-73
2022/02/14 13:23:34;;;;;;;14.93;7.93;;;;;;;;;;4994175;28;20022;-73
2022/02/14 13:26:00;;;;;;;19.42;8.98;;;;;;;;;;4994776;28;20481;-70
2022/02/14 13:28:26;;;;;;;14.70;8.73;;;;;;;;;;4994530;28;20097;-72
2022/02/14 13:30:53;;;;;;;14.80;9.82;;;;;;;;;;5010022;28;20543;-72
2022/02/14 13:33:19;;;;;;;15.90;9.10;;;;;;;;;;4994480;28;20108;-71
2022/02/14 13:35:45;;;;;;;15.25;8.73;;;;;;;;;;4994735;28;20555;-72
2022/02/14 13:38:11;;;;;;;14.38;9.15;;;;;;;;;;4994530;28;20031;-72
2022/02/14 13:40:40;;;;;;;18.83;8.82;;;;;;;;;;4994291;28;20106;-72
2022/02/14 13:43:10;;;;;;;16.27;8.90;;;;;;;;;;4993927;28;20099;-72
2022/02/14 13:45:48;;;;;;;17.42;10.43;;;;;;;;;;4994324;28;20524;-73
2022/02/14 13:48:17;;;;;;;18.83;8.60;;;;;;;;;;4994395;28;20034;-72
2022/02/14 13:50:44;;;;;;;20.45;9.90;;;;;;;;;;4994399;28;20109;-72
2022/02/14 13:53:23;;;;;;;15.57;9.38;;;;;;;;;;4993897;28;20026;-69
2022/02/14 13:56:01;;;;;;;18.55;10.13;;;;;;;;;;4994040;28;20061;-70
2022/02/14 13:58:28;;;;;;;20.23;9.88;;;;;;;;;;4994049;28;20033;-71
2022/02/14 14:00:54;;;;;;;17.92;9.50;;;;;;;;;;5009259;28;20321;-69
2022/02/14 14:03:23;;;;;;;22.42;9.80;;;;;;;;;;4993443;28;20026;-72
2022/02/14 14:05:49;;;;;;;18.00;9.80;;;;;;;;;;4994095;28;20018;-70
2022/02/14 14:08:31;;;;;;;16.27;9.50;;;;;;;;;;4994122;28;20030;-72
2022/02/14 14:10:57;;;;;;;15.93;9.82;;;;;;;;;;4994121;28;20030;-72
2022/02/14 14:13:36;;;;;;;20.33;9.38;;;;;;;;;;5008407;28;20555;-69
2022/02/14 14:16:02;;;;;;;19.40;10.18;;;;;;;;;;4993786;28;20477;-72
2022/02/14 14:18:28;;;;;;;14.63;8.73;;;;;;;;;;4993739;28;20058;-74
2022/02/14 14:21:03;;;;;;;18.48;10.25;;;;;;;;;;4993958;28;20073;-72
2022/02/14 14:23:29;;;;;;;17.60;9.73;;;;;;;;;;4993496;28;20113;-73
2022/02/14 14:25:55;;;;;;;19.58;10.10;;;;;;;;;;4993853;28;20065;-70
2022/02/14 14:28:21;;;;;;;19.65;9.52;;;;;;;;;;4994333;28;20026;-73
2022/02/14 14:30:47;;;;;;;20.15;11.13;;;;;;;;;;4993679;28;20104;-73
2022/02/14 14:33:13;;;;;;;18.73;9.38;;;;;;;;;;4993098;28;20106;-71
2022/02/14 14:35:40;;;;;;;15.57;9.50;;;;;;;;;;4993584;28;20604;-72
2022/02/14 14:38:06;;;;;;;21.55;10.13;;;;;;;;;;4993540;28;20018;-73
2022/02/14 14:40:32;;;;;;;16.60;9.55;;;;;;;;;;4993380;28;20097;-73